Latest Coastal Weather Observations for Coolangatta (QLD)

IDN60701

Issued at 11:45 pm EST Thursday 31 July 2014 (issued every 10 minutes, with the page automatically refreshed every 10 minutes)

About coastal observations | Map of coastal stations | Coastal observations for NSW | Marine services | Other Formats
Station Details ID: 040717 Name: COOLANGATTA Lat: -28.17 Lon: 153.51 Height: 4.0 m
Data from the previous 72 hours. | See also: Recent months at Coolangatta (QLD)
Date/Time
EST
Temp

°C
Wind Pressure Rain
since 9am
mm
Weather Cloud Vis
km
Sea
Height
m
Swell
Dir
 
Speed
knots
Gust
knots
hPa Trend Height
m
Period
s
Dir
31/11:30pm 12.4 SW 3 5 1017.7 - 0.0 - - 10 - - - -
31/11:00pm 12.6 WSW 3 4 1017.7 - 0.0 - - 10 - - - -
31/10:30pm 13.5 W 4 5 1017.7 - 0.0 - - 10 - - - -
31/10:00pm 13.3 W 5 7 1017.7 - 0.0 - - 10 - - - -
31/09:30pm 13.6 WNW 4 5 1017.7 - 0.0 - - 10 - - - -
31/09:00pm 13.8 W 4 6 1017.6 - 0.0 - - 10 - - - -
31/08:30pm 14.6 W 5 6 1017.4 - 0.0 - - 10 - - - -
31/08:00pm 15.2 WSW 4 5 1017.1 - 0.0 - - 10 - - - -
31/07:30pm 17.6 WNW 5 6 1016.9 - 0.0 - - 10 - - - -
31/07:00pm 18.9 NNW 7 10 1016.5 - 0.0 - - 10 - - - -
31/06:30pm 19.5 NNW 10 14 1016.4 - 0.0 - - 10 - - - -
31/06:00pm 19.4 N 11 15 1016.1 - 0.0 - - 10 - - - -
31/05:30pm 19.7 N 13 18 1015.8 - 0.0 - - 10 - - - -
31/05:00pm 19.9 N 15 19 1015.6 - 0.0 - Partly cloudy 10 - - - -
31/04:30pm 20.3 N 15 19 1015.5 - 0.0 - Partly cloudy 10 - - - -
31/04:00pm 21.1 N 15 18 1015.4 - 0.0 - - 10 - - - -
31/03:30pm 21.7 N 16 21 1015.4 - 0.0 - Partly cloudy 10 - - - -
31/03:00pm 22.1 N 16 20 1015.5 - 0.0 - Partly cloudy 10 - - - -
31/02:30pm 21.9 N 15 20 1015.6 - 0.0 - Partly cloudy 10 - - - -
31/02:00pm 22.1 N 16 20 1015.8 - 0.0 - Partly cloudy 10 - - - -
31/01:30pm 21.9 N 15 19 1016.4 - 0.0 - Partly cloudy 10 - - - -
31/01:00pm 22.3 N 14 18 1017.1 - 0.0 - - 10 - - - -
31/12:30pm 22.0 N 13 16 1017.8 - 0.0 - - 10 - - - -
31/12:00pm 21.8 N 13 16 1018.5 - 0.0 - - 10 - - - -
31/11:30am 21.7 N 13 16 1019.3 - 0.0 - - 10 - - - -
31/11:00am 20.8 N 13 15 1019.9 - 0.0 - - 10 - - - -
31/10:30am 20.4 N 11 13 1020.4 - 0.0 - - 10 - - - -
31/10:00am 19.6 N 10 12 1020.8 - 0.0 - - 9 - - - -
31/09:30am 18.3 NNE 6 9 1020.9 - 0.0 - - 8 - - - -
31/09:00am 16.4 N 7 9 1021.0 - 0.0 - - 10 - - - -
31/08:30am 14.1 CALM 0 0 1020.9 - 0.0 - - 10 - - - -
31/08:00am 10.3 CALM 0 0 1020.7 - 0.0 - - 10 - - - -
31/07:30am 8.4 WSW 2 4 1020.4 - 0.0 - - 10 - - - -
31/07:22am 7.5 WSW 3 4 1020.3 - 0.0 - - 9 - - - -
31/07:00am 5.6 CALM 0 0 1020.3 - 0.0 - - 0.4 - - - -
31/06:30am 5.2 WSW 2 3 1020.1 - 0.0 - - 1 - - - -
31/06:24am 5.4 WSW 3 4 1020.0 - 0.0 - - 6 - - - -
31/06:17am 6.0 WSW 4 5 1019.9 - 0.0 - - 8 - - - -
31/06:00am 5.2 WSW 3 4 1019.8 - 0.0 - - 5 - - - -
31/05:30am 5.8 WSW 3 4 1019.7 - 0.0 - - 6 - - - -
31/05:00am 6.7 CALM 0 0 1019.6 - 0.0 - - 1 - - - -
31/04:30am 5.6 CALM 0 0 1019.5 - 0.0 - - 0.1 - - - -
31/04:00am 5.6 CALM 0 0 1019.4 - 0.0 - - 0.6 - - - -
31/03:30am 6.4 CALM 0 3 1019.3 - 0.0 - - 2 - - - -
31/03:00am 6.9 WSW 4 5 1019.4 - 0.0 - - 5 - - - -
31/02:51am 6.7 WSW 4 5 1019.4 - 0.0 - - 6 - - - -
31/02:49am 6.9 WSW 3 5 1019.5 - 0.0 - - 7 - - - -
31/02:34am 6.7 CALM 0 0 1019.6 - 0.0 - - 6 - - - -
31/02:30am 7.2 CALM 0 0 1019.6 - 0.0 - - 8 - - - -
31/02:00am 7.1 WSW 4 5 1019.8 - 0.0 - - 10 - - - -
31/01:30am 8.3 W 3 5 1019.9 - 0.0 - - 10 - - - -
31/01:04am 7.8 CALM 0 0 1020.0 - 0.0 - - 7 - - - -
31/01:00am 8.2 CALM 0 0 1020.1 - 0.0 - - 10 - - - -
31/12:45am 8.1 W 0 0 1020.2 - 0.0 - - 3 - - - -
31/12:30am 8.8 WSW 3 4 1020.2 - 0.0 - - 10 - - - -
31/12:00am 9.0 W 4 5 1020.3 - 0.0 - - 10 - - - -
 
Date/Time
EST
Temp

°C
Wind Pressure Rain
since 9am
mm
Weather Cloud Vis
km
Sea
Height
m
Swell
Dir
 
Speed
knots
Gust
knots
hPa Trend Height
m
Period
s
Dir
30/11:30pm 9.4 WSW 4 5 1020.6 - 0.0 - - 10 - - - -
30/11:00pm 8.4 WSW 4 5 1020.7 - 0.0 - - 10 - - - -
30/10:30pm 8.8 WSW 4 5 1020.7 - 0.0 - - 10 - - - -
30/10:00pm 9.8 WSW 6 7 1021.0 - 0.0 - - 10 - - - -
30/09:30pm 10.5 WSW 3 4 1020.9 - 0.0 - - 10 - - - -
30/09:00pm 10.9 WSW 4 5 1020.9 - 0.0 - - 10 - - - -
30/08:30pm 10.7 SSW 2 3 1020.9 - 0.0 - - 10 - - - -
30/08:00pm 11.2 WSW 3 6 1020.9 - 0.0 - - 10 - - - -
30/07:30pm 11.5 WSW 5 7 1020.7 - 0.0 - - 10 - - - -
30/07:00pm 11.3 WSW 1 4 1020.6 - 0.0 - - 10 - - - -
30/06:30pm 12.0 CALM 0 3 1020.4 - 0.0 - - 10 - - - -
30/06:00pm 13.0 WSW 5 5 1020.1 - 0.0 - - 10 - - - -
30/05:30pm 14.3 CALM 0 0 1019.9 - 0.0 - - 10 - - - -
30/05:00pm 18.0 NE 4 4 1019.7 - 0.0 - - 10 - - - -
30/04:30pm 19.4 ENE 6 7 1019.5 - 0.0 - - 10 - - - -
30/04:00pm 19.6 NNE 6 7 1019.3 - 0.0 - - 10 - - - -
30/03:30pm 19.7 ENE 7 9 1019.2 - 0.0 - - 10 - - - -
30/03:00pm 20.3 ENE 7 10 1019.2 - 0.0 - - 10 - - - -
30/02:30pm 20.4 ENE 8 10 1019.3 - 0.0 - - 10 - - - -
30/02:00pm 20.7 ENE 8 10 1019.3 - 0.0 - - 10 - - - -
30/01:30pm 20.3 ENE 8 10 1019.6 - 0.0 - - 10 - - - -
30/01:00pm 20.4 NE 9 11 1019.7 - 0.0 - - 10 - - - -
30/12:30pm 20.0 NE 8 10 1020.2 - 0.0 - - 10 - - - -
30/12:00pm 20.4 NE 7 9 1020.7 - 0.0 - - 10 - - - -
30/11:30am 20.9 N 4 6 1021.2 - 0.0 - - 10 - - - -
30/11:00am 20.1 NNE 6 7 1021.8 - 0.0 - - 10 - - - -
30/10:30am 20.0 NE 5 7 1022.2 - 0.0 - - 10 - - - -
30/10:00am 19.5 NNE 5 6 1022.6 - 0.0 - - 10 - - - -
30/09:30am 19.1 SE 2 5 1022.7 - 0.0 - - 10 - - - -
30/09:00am 16.8 CALM 0 0 1022.9 - 0.0 - - 10 - - - -
30/08:30am 12.9 S 3 4 1023.0 - 0.0 - - 10 - - - -
30/08:00am 10.2 W 3 4 1022.7 - 0.0 - - 10 - - - -
30/07:30am 7.6 S 2 4 1022.6 - 0.0 - - 10 - - - -
30/07:00am 5.4 SSE 3 5 1022.3 - 0.0 - - 10 - - - -
30/06:30am 4.0 ENE 1 3 1022.1 - 0.0 - - 10 - - - -
30/06:00am 4.9 CALM 0 0 1021.7 - 0.0 - - 10 - - - -
30/05:30am 6.3 SW 2 4 1021.5 - 0.0 - - 10 - - - -
30/05:01am 5.7 SW 3 4 1021.3 - 0.0 - - 10 - - - -
30/05:00am 5.9 SW 3 4 1021.3 - 0.0 - - 10 - - - -
30/04:30am 5.1 CALM 0 0 1021.0 - 0.0 - - 0.5 - - - -
30/04:00am 5.6 SSW 2 4 1020.9 - 0.0 - - 0.5 - - - -
30/03:30am 6.2 S 2 3 1020.9 - 0.0 - - 0.2 - - - -
30/03:00am 6.9 SW 3 4 1020.8 - 0.0 - - 0.9 - - - -
30/02:44am 6.8 SSW 2 4 1020.8 - 0.0 - - 6 - - - -
30/02:33am 7.4 SSW 3 5 1020.9 - 0.0 - - 10 - - - -
30/02:30am 7.0 SSW 2 5 1020.9 - 0.0 - - 10 - - - -
30/02:00am 6.2 S 3 4 1021.1 - 0.0 - - 0.5 - - - -
30/01:56am 7.4 S 3 5 1021.1 - 0.0 - - 5 - - - -
30/01:30am 7.6 SSW 3 4 1021.3 - 0.0 - - 10 - - - -
30/01:00am 8.4 SW 4 5 1021.6 - 0.0 - - 10 - - - -
30/12:30am 8.1 S 4 5 1021.7 - 0.0 - - 10 - - - -
30/12:08am 7.7 SW 4 5 1021.7 - 0.0 - - 10 - - - -
30/12:00am 7.9 SSW 1 4 1021.7 - 0.0 - - 10 - - - -
 
Date/Time
EST
Temp

°C
Wind Pressure Rain
since 9am
mm
Weather Cloud Vis
km
Sea
Height
m
Swell
Dir
 
Speed
knots
Gust
knots
hPa Trend Height
m
Period
s
Dir
29/11:49pm 7.5 CALM 0 3 1021.7 - 0.0 - - 5 - - - -
29/11:44pm 8.4 SSW 2 4 1021.7 - 0.0 - - 10 - - - -
29/11:30pm 8.0 SW 3 5 1021.7 - 0.0 - - 1 - - - -
29/11:22pm 7.7 CALM 0 0 1021.8 - 0.0 - - 3 - - - -
29/11:00pm 8.7 SW 2 4 1021.9 - 0.0 - - 10 - - - -
29/10:30pm 8.7 SSW 3 4 1021.9 - 0.0 - - 10 - - - -
29/10:00pm 10.2 CALM 0 3 1021.9 - 0.0 - - 10 - - - -
29/09:30pm 9.8 SW 3 4 1021.6 - 0.0 - - 10 - - - -
29/09:00pm 9.9 SW 3 3 1021.3 - 0.0 - - 10 - - - -
29/08:30pm 10.8 WSW 4 5 1021.1 - 0.0 - - 10 - - - -
29/08:00pm 10.3 SW 3 5 1021.0 - 0.0 - - 10 - - - -
29/07:30pm 11.2 WSW 4 5 1020.7 - 0.0 - - 10 - - - -
29/07:00pm 11.8 WSW 4 5 1020.6 - 0.0 - - 10 - - - -
29/06:30pm 12.1 WSW 5 6 1020.4 - 0.0 - - 10 - - - -
29/06:00pm 13.3 WSW 5 6 1020.5 - 0.0 - - 10 - - - -
29/05:30pm 14.0 E 2 3 1020.2 - 0.0 - - 10 - - - -
29/05:00pm 17.3 ESE 5 6 1020.1 - 0.0 - - 10 - - - -
29/04:30pm 18.7 ENE 6 8 1019.8 - 0.0 - - 10 - - - -
29/04:00pm 19.2 ENE 7 8 1019.7 - 0.0 - - 10 - - - -
29/03:30pm 19.5 ENE 8 10 1019.7 - 0.0 - - 10 - - - -
29/03:00pm 19.7 ENE 8 10 1019.9 - 0.0 - - 10 - - - -
29/02:30pm 19.8 ENE 8 11 1019.9 - 0.0 - - 10 - - - -
29/02:00pm 20.1 ENE 9 11 1020.0 - 0.0 - - 10 - - - -
29/01:30pm 20.1 ENE 9 12 1020.2 - 0.0 - - 10 - - - -
29/01:00pm 20.1 NE 8 11 1020.3 - 0.0 - - 10 - - - -
29/12:30pm 20.1 NE 10 12 1020.5 - 0.0 - - 10 - - - -
29/12:00pm 19.8 NNE 10 11 1020.8 - 0.0 - - 10 - - - -
29/11:30am 20.2 SE 6 10 1021.4 - 0.0 - - 10 - - - -
29/11:00am 19.7 SSE 7 11 1022.0 - 0.0 - - 10 - - - -
29/10:30am 19.3 SSE 7 9 1022.1 - 0.0 - - 10 - - - -
29/10:00am 19.1 SW 4 5 1022.3 - 0.0 - - 10 - - - -
29/09:30am 18.4 W 2 5 1022.4 - 0.0 - - 10 - - - -
29/09:00am 16.9 NNW 4 6 1022.5 - 0.0 - - 10 - - - -
29/08:30am 14.9 W 2 4 1022.5 - 0.0 - - 10 - - - -
29/08:00am 12.4 CALM 0 0 1022.2 - 0.0 - - 10 - - - -
29/07:30am 9.9 WSW 5 6 1021.9 - 0.0 - - 10 - - - -
29/07:00am 7.6 WSW 4 5 1021.7 - 0.0 - - 10 - - - -
29/06:30am 7.2 WSW 4 5 1021.4 - 0.0 - - 10 - - - -
29/06:00am 7.9 SW 3 6 1021.1 - 0.0 - - 10 - - - -
29/05:30am 8.0 WSW 7 8 1020.8 - 0.0 - - 10 - - - -
29/05:00am 8.1 WNW 6 7 1020.5 - 0.0 - - 10 - - - -
29/04:30am 10.2 W 4 5 1020.3 - 0.0 - - 10 - - - -
29/04:00am 12.2 NW 7 8 1019.9 - 0.0 - - 10 - - - -
29/03:30am 11.8 NNW 6 7 1019.8 - 0.0 - - 10 - - - -
29/03:00am 11.7 NNW 7 8 1019.9 - 0.0 - - 10 - - - -
29/02:30am 12.6 NW 4 5 1020.0 - 0.0 - - 10 - - - -
29/02:00am 13.3 NW 6 9 1020.2 - 0.0 - - 10 - - - -
29/01:30am 14.3 NW 8 9 1020.4 - 0.0 - - 10 - - - -
29/01:00am 14.4 WNW 7 9 1020.6 - 0.0 - - 10 - - - -
29/12:30am 15.0 WNW 8 10 1021.0 - 0.0 - - 10 - - - -
29/12:00am 14.6 WNW 7 9 1021.3 - 0.0 - - 10 - - - -

Other Formats:

Comma delimited format used in spreadsheet applications
http://www.bom.gov.au/fwo/IDN60701/IDN60701.94592.axf

JavaScript Object Notation format (JSON) in row-major order
http://www.bom.gov.au/fwo/IDN60701/IDN60701.94592.json